Time;durP1;ratioP1;P1;durP2;ratioP2;P2;SDS_P1;SDS_P2;PMS_P1;PMS_P2;Temp;Humidity;BMP_temperature;BMP_pressure;BME280_temperature;BME280_humidity;BME280_pressure;Samples;Min_cycle;Max_cycle;Signal;HPM_P1;HPM_P2
2023/08/27 00:01:21;;;;;;;1.95;1.70;;;18.70;83.50;;;;;;918294;154;27437;-74
2023/08/27 00:03:48;;;;;;;1.90;1.80;;;18.70;84.00;;;;;;923330;152;27358;-72
2023/08/27 00:06:14;;;;;;;2.10;1.75;;;18.60;84.30;;;;;;934928;150;28370;-71
2023/08/27 00:08:41;;;;;;;1.95;1.75;;;18.70;84.80;;;;;;934906;151;27366;-71
2023/08/27 00:11:07;;;;;;;2.55;1.80;;;18.60;85.10;;;;;;939693;150;27441;-74
2023/08/27 00:13:34;;;;;;;1.82;1.72;;;18.60;85.70;;;;;;939082;150;27437;-75
2023/08/27 00:16:01;;;;;;;2.98;1.80;;;18.70;86.30;;;;;;938615;148;27412;-72
2023/08/27 00:18:27;;;;;;;1.85;1.75;;;18.60;86.70;;;;;;941028;151;27283;-71
2023/08/27 00:20:54;;;;;;;1.80;1.70;;;18.70;87.10;;;;;;943816;149;27274;-72
2023/08/27 00:23:20;;;;;;;4.65;1.92;;;18.70;87.50;;;;;;942333;151;27425;-73
2023/08/27 00:25:47;;;;;;;2.87;2.25;;;18.70;87.70;;;;;;937036;152;27421;-71
2023/08/27 00:28:14;;;;;;;2.10;1.90;;;18.70;87.80;;;;;;937557;150;27357;-72
2023/08/27 00:30:40;;;;;;;1.80;1.70;;;18.70;87.90;;;;;;937168;152;27458;-71
2023/08/27 00:33:07;;;;;;;3.65;2.12;;;18.80;88.20;;;;;;937332;150;27435;-73
2023/08/27 00:35:33;;;;;;;3.37;1.62;;;18.70;88.40;;;;;;937537;152;27437;-71
2023/08/27 00:38:00;;;;;;;2.60;2.40;;;18.70;88.90;;;;;;936985;153;27349;-72
2023/08/27 00:40:30;;;;;;;2.35;1.80;;;18.70;89.20;;;;;;937124;152;27367;-71
2023/08/27 00:42:56;;;;;;;2.20;1.98;;;18.70;89.80;;;;;;937370;150;27398;-72
2023/08/27 00:45:23;;;;;;;2.33;1.80;;;18.70;90.10;;;;;;937449;153;27370;-75
2023/08/27 00:47:49;;;;;;;2.77;2.08;;;18.70;90.30;;;;;;937482;150;27769;-71
2023/08/27 00:50:16;;;;;;;2.27;2.05;;;18.70;90.60;;;;;;936640;152;27337;-72
2023/08/27 00:52:42;;;;;;;5.22;2.33;;;18.70;90.80;;;;;;937549;153;27350;-77
2023/08/27 00:55:09;;;;;;;3.58;2.02;;;18.70;91.30;;;;;;936982;152;27444;-77
2023/08/27 00:57:38;;;;;;;2.05;1.80;;;18.70;91.00;;;;;;937318;152;27353;-77
2023/08/27 01:00:09;;;;;;;2.47;1.95;;;18.70;91.20;;;;;;937136;150;27308;-78
2023/08/27 01:02:32;;;;;;;2.20;2.00;;;18.60;91.40;;;;;;936905;152;27334;-76
2023/08/27 01:04:58;;;;;;;2.05;1.80;;;18.60;91.70;;;;;;936985;150;27436;-76
2023/08/27 01:07:40;;;;;;;2.05;1.85;;;18.60;91.80;;;;;;937462;150;27317;-75
2023/08/27 01:10:09;;;;;;;3.87;2.10;;;18.60;92.10;;;;;;928533;151;27388;-76
2023/08/27 01:12:36;;;;;;;1.90;1.80;;;18.60;92.10;;;;;;943023;149;27321;-77
2023/08/27 01:15:02;;;;;;;2.05;1.90;;;18.60;92.20;;;;;;940127;149;27447;-76
2023/08/27 01:17:29;;;;;;;2.12;1.92;;;18.60;92.30;;;;;;932307;150;27422;-74
2023/08/27 01:19:56;;;;;;;2.00;1.90;;;18.60;92.50;;;;;;929928;153;27390;-77
2023/08/27 01:22:22;;;;;;;3.75;1.95;;;18.60;92.60;;;;;;930503;153;27810;-77
2023/08/27 01:24:49;;;;;;;1.82;1.72;;;18.60;92.90;;;;;;930221;152;27457;-77
2023/08/27 01:27:28;;;;;;;2.12;1.92;;;18.60;93.00;;;;;;930720;153;27433;-76
2023/08/27 01:30:03;;;;;;;3.10;2.08;;;18.60;93.10;;;;;;921801;153;27367;-78
2023/08/27 01:32:39;;;;;;;2.45;1.70;;;18.60;93.30;;;;;;935464;150;27362;-77
2023/08/27 01:35:06;;;;;;;1.65;1.55;;;18.60;93.50;;;;;;914762;153;27393;-77
2023/08/27 01:37:32;;;;;;;2.67;1.70;;;18.60;93.70;;;;;;940712;150;27779;-77
2023/08/27 01:40:05;;;;;;;2.33;2.02;;;18.60;93.90;;;;;;935249;152;27301;-75
2023/08/27 01:42:25;;;;;;;2.17;1.98;;;18.60;94.10;;;;;;938048;150;27437;-77
2023/08/27 01:44:52;;;;;;;2.12;1.82;;;18.60;94.30;;;;;;923587;152;27345;-76
2023/08/27 01:47:18;;;;;;;1.98;1.87;;;18.60;94.60;;;;;;929906;152;27362;-77
2023/08/27 01:49:45;;;;;;;2.58;2.37;;;18.60;94.80;;;;;;935187;151;27296;-76
2023/08/27 01:52:12;;;;;;;4.08;2.25;;;18.60;95.00;;;;;;936275;150;27437;-76
2023/08/27 01:54:38;;;;;;;3.95;2.05;;;18.60;95.10;;;;;;919396;153;28306;-77
2023/08/27 01:57:05;;;;;;;3.00;2.00;;;18.60;95.20;;;;;;935185;152;27321;-77
2023/08/27 01:59:31;;;;;;;2.50;2.27;;;18.60;95.50;;;;;;939138;150;27321;-77
2023/08/27 02:01:58;;;;;;;5.25;1.98;;;18.60;95.70;;;;;;923611;154;27365;-75
2023/08/27 02:04:25;;;;;;;2.37;1.87;;;18.60;95.80;;;;;;924155;155;27814;-73
2023/08/27 02:06:51;;;;;;;3.05;2.02;;;18.60;96.00;;;;;;923620;153;27423;-75
2023/08/27 02:09:18;;;;;;;3.58;2.20;;;18.50;96.20;;;;;;934809;152;27483;-71
2023/08/27 02:11:44;;;;;;;3.60;2.12;;;18.50;96.40;;;;;;940197;150;27246;-73
2023/08/27 02:16:31;;;;;;;2.42;1.75;;;18.50;96.60;;;;;;975042;144;37288;-70
2023/08/27 02:18:57;;;;;;;3.52;2.20;;;18.50;97.00;;;;;;958310;145;27339;-72
2023/08/27 02:21:24;;;;;;;3.00;2.08;;;18.40;97.10;;;;;;958878;148;27367;-73
2023/08/27 02:23:51;;;;;;;2.35;2.00;;;18.40;97.30;;;;;;928419;154;27362;-74
2023/08/27 02:26:17;;;;;;;2.10;1.90;;;18.40;97.20;;;;;;959449;146;28692;-74
2023/08/27 02:28:46;;;;;;;2.37;1.90;;;18.40;97.30;;;;;;959878;145;27274;-73
2023/08/27 02:31:10;;;;;;;2.35;2.15;;;18.40;97.30;;;;;;960812;145;27307;-74
2023/08/27 02:33:37;;;;;;;2.65;1.90;;;18.30;97.50;;;;;;960927;146;27330;-74
2023/08/27 02:36:04;;;;;;;2.85;2.35;;;18.30;97.60;;;;;;960810;145;27872;-73
2023/08/27 02:38:30;;;;;;;3.55;1.85;;;18.30;97.80;;;;;;961715;146;27327;-74
2023/08/27 02:40:57;;;;;;;2.30;2.10;;;18.30;98.00;;;;;;958255;145;27286;-73
2023/08/27 02:43:24;;;;;;;3.37;2.10;;;18.30;98.60;;;;;;960128;146;27383;-77
2023/08/27 02:45:50;;;;;;;2.50;2.00;;;18.30;98.30;;;;;;959236;145;27344;-76
2023/08/27 02:48:17;;;;;;;2.35;2.15;;;18.30;98.50;;;;;;960263;145;27305;-73
2023/08/27 02:50:43;;;;;;;3.27;2.12;;;18.30;98.70;;;;;;961740;146;27651;-74
2023/08/27 02:53:10;;;;;;;2.60;2.40;;;18.20;98.80;;;;;;959446;145;27295;-74
2023/08/27 02:55:36;;;;;;;1.92;1.82;;;18.20;99.00;;;;;;959646;146;27484;-76
2023/08/27 02:58:03;;;;;;;2.12;1.92;;;18.20;99.30;;;;;;959490;145;27371;-73
2023/08/27 03:00:30;;;;;;;2.17;1.80;;;18.30;99.50;;;;;;958696;145;27363;-73
2023/08/27 03:02:56;;;;;;;3.55;2.22;;;18.30;99.70;;;;;;960235;145;27306;-74
2023/08/27 03:05:23;;;;;;;4.00;2.40;;;18.30;99.80;;;;;;961347;146;27375;-75
2023/08/27 03:07:49;;;;;;;1.90;1.75;;;18.30;99.90;;;;;;959251;145;27318;-73
2023/08/27 03:10:16;;;;;;;2.77;2.05;;;18.40;99.90;;;;;;942330;148;27319;-73
2023/08/27 03:12:42;;;;;;;2.27;1.92;;;18.40;99.90;;;;;;943613;151;27240;-78
2023/08/27 03:15:09;;;;;;;2.50;2.08;;;18.40;99.90;;;;;;942075;148;27358;-78
2023/08/27 03:17:36;;;;;;;2.62;2.15;;;18.40;99.90;;;;;;941204;148;27445;-75
2023/08/27 03:20:02;;;;;;;3.75;2.10;;;18.40;99.80;;;;;;941048;148;27836;-78
2023/08/27 03:22:29;;;;;;;2.35;2.15;;;18.50;99.80;;;;;;939526;149;27303;-78
2023/08/27 03:24:56;;;;;;;2.85;2.05;;;18.40;99.80;;;;;;938927;149;27441;-77
2023/08/27 03:27:22;;;;;;;2.15;1.95;;;18.50;99.90;;;;;;938032;149;27463;-75
2023/08/27 03:29:49;;;;;;;2.10;1.90;;;18.40;99.80;;;;;;937557;149;27377;-77
2023/08/27 03:32:15;;;;;;;2.22;1.90;;;18.40;99.80;;;;;;938645;149;27838;-78
2023/08/27 03:34:42;;;;;;;3.80;2.12;;;18.40;99.80;;;;;;938238;149;27399;-78
2023/08/27 03:37:08;;;;;;;2.98;2.12;;;18.40;99.90;;;;;;938576;149;27410;-77
2023/08/27 03:39:35;;;;;;;2.70;2.47;;;18.40;99.90;;;;;;939061;149;27441;-79
2023/08/27 03:42:02;;;;;;;2.98;2.30;;;18.40;99.90;;;;;;937077;149;27354;-78
2023/08/27 03:44:28;;;;;;;3.40;2.12;;;18.40;99.90;;;;;;939193;149;27395;-78
2023/08/27 03:46:55;;;;;;;2.90;2.30;;;18.30;99.90;;;;;;938075;149;27422;-79
2023/08/27 03:49:21;;;;;;;3.12;2.30;;;18.30;99.90;;;;;;938396;149;27370;-75
2023/08/27 03:51:48;;;;;;;2.22;2.02;;;18.30;99.90;;;;;;939621;149;27396;-77
2023/08/27 03:54:14;;;;;;;2.22;2.05;;;18.30;99.90;;;;;;937927;149;27387;-78
2023/08/27 03:56:41;;;;;;;2.40;2.20;;;18.30;99.90;;;;;;938172;149;27299;-78
2023/08/27 03:59:08;;;;;;;3.02;2.40;;;18.30;99.90;;;;;;937881;149;27461;-76
2023/08/27 04:01:34;;;;;;;3.83;2.37;;;18.30;99.90;;;;;;938162;149;27378;-78
2023/08/27 04:04:03;;;;;;;2.40;2.20;;;18.30;99.90;;;;;;937639;149;27353;-79
2023/08/27 04:06:27;;;;;;;2.60;1.85;;;18.30;99.90;;;;;;937174;149;27407;-78
2023/08/27 04:08:54;;;;;;;2.95;1.92;;;18.30;99.90;;;;;;938590;149;27780;-78
2023/08/27 04:11:21;;;;;;;2.47;2.00;;;18.30;99.90;;;;;;938621;149;27365;-75
2023/08/27 04:13:47;;;;;;;3.45;2.02;;;18.30;99.90;;;;;;938151;149;27368;-79
2023/08/27 04:16:14;;;;;;;2.92;2.20;;;18.20;99.90;;;;;;939261;149;27396;-77
2023/08/27 04:18:40;;;;;;;2.72;2.52;;;18.20;99.90;;;;;;938580;149;27455;-78
2023/08/27 04:21:07;;;;;;;2.12;2.02;;;18.30;99.90;;;;;;940090;149;27327;-75
2023/08/27 04:23:34;;;;;;;3.08;2.10;;;18.20;99.90;;;;;;938591;149;27369;-73
2023/08/27 04:26:03;;;;;;;3.58;2.30;;;18.20;99.90;;;;;;939818;149;27331;-76
2023/08/27 04:28:27;;;;;;;3.22;2.37;;;18.20;99.90;;;;;;939045;149;27338;-73
2023/08/27 04:30:53;;;;;;;2.90;2.35;;;18.20;99.90;;;;;;940161;149;27398;-75
2023/08/27 04:33:20;;;;;;;2.35;2.15;;;18.20;99.90;;;;;;940601;149;27381;-77
2023/08/27 04:35:48;;;;;;;3.17;2.40;;;18.20;99.90;;;;;;940308;149;27382;-73
2023/08/27 04:38:13;;;;;;;2.58;2.30;;;18.20;99.90;;;;;;940076;149;28358;-73
2023/08/27 04:40:40;;;;;;;2.62;2.42;;;18.10;99.90;;;;;;938251;149;27263;-74
2023/08/27 04:43:06;;;;;;;3.40;2.25;;;18.10;99.90;;;;;;936694;149;27389;-76
2023/08/27 04:45:33;;;;;;;2.55;2.25;;;18.10;99.90;;;;;;938418;149;27438;-73
2023/08/27 04:47:59;;;;;;;3.35;2.10;;;18.10;99.90;;;;;;937116;149;27451;-73
2023/08/27 04:50:26;;;;;;;2.67;2.22;;;18.10;99.90;;;;;;939239;149;27348;-74
2023/08/27 04:52:53;;;;;;;4.70;2.65;;;18.10;99.90;;;;;;938615;149;27326;-75
2023/08/27 04:55:19;;;;;;;3.10;2.80;;;18.10;99.90;;;;;;939161;149;27383;-73
2023/08/27 04:57:46;;;;;;;2.77;2.58;;;18.10;99.90;;;;;;937321;149;27366;-73
2023/08/27 05:00:20;;;;;;;2.47;2.30;;;18.10;99.90;;;;;;939217;149;27332;-75
2023/08/27 05:02:42;;;;;;;3.47;2.20;;;18.10;99.90;;;;;;938690;149;27333;-74
2023/08/27 05:05:08;;;;;;;3.10;2.72;;;18.10;99.90;;;;;;938651;149;27469;-76
2023/08/27 05:07:35;;;;;;;3.87;2.75;;;18.10;99.90;;;;;;936082;149;27431;-73
2023/08/27 05:10:01;;;;;;;2.52;2.33;;;18.10;99.90;;;;;;937705;149;27369;-73
2023/08/27 05:12:28;;;;;;;2.60;2.40;;;18.10;99.90;;;;;;938820;149;27274;-74
2023/08/27 05:14:54;;;;;;;3.00;2.65;;;18.10;99.90;;;;;;938836;149;27340;-75
2023/08/27 05:17:21;;;;;;;4.35;2.85;;;18.10;99.90;;;;;;932838;149;27486;-74
2023/08/27 05:19:48;;;;;;;2.77;2.58;;;18.10;99.90;;;;;;937775;151;27317;-74
2023/08/27 05:22:14;;;;;;;4.17;2.52;;;18.10;99.90;;;;;;934574;152;27360;-73
2023/08/27 05:24:41;;;;;;;5.47;2.45;;;18.10;99.90;;;;;;925401;151;27437;-73
2023/08/27 05:27:07;;;;;;;2.58;2.37;;;18.10;99.90;;;;;;927258;152;27361;-73
2023/08/27 05:29:34;;;;;;;3.33;2.30;;;18.10;99.90;;;;;;928476;152;28449;-72
2023/08/27 05:32:01;;;;;;;4.90;2.67;;;18.20;99.90;;;;;;926271;154;27449;-75
2023/08/27 05:34:27;;;;;;;3.50;2.40;;;18.20;99.90;;;;;;925327;154;27327;-76
2023/08/27 05:36:54;;;;;;;2.47;2.27;;;18.20;99.90;;;;;;927828;152;27437;-75
2023/08/27 05:39:20;;;;;;;2.67;2.40;;;18.30;99.90;;;;;;923692;154;27373;-75
2023/08/27 05:41:47;;;;;;;2.33;2.08;;;18.30;99.90;;;;;;922917;154;27428;-75
2023/08/27 05:44:14;;;;;;;2.35;2.17;;;18.30;99.90;;;;;;924217;154;27342;-75
2023/08/27 05:46:40;;;;;;;2.65;2.45;;;18.30;99.90;;;;;;925891;153;27302;-75
2023/08/27 05:49:07;;;;;;;2.30;2.10;;;18.40;99.90;;;;;;925225;154;27361;-76
2023/08/27 05:51:33;;;;;;;3.00;2.55;;;18.40;99.90;;;;;;924060;151;27340;-75
2023/08/27 05:54:00;;;;;;;2.72;2.30;;;18.50;99.90;;;;;;924880;154;27456;-75
2023/08/27 05:56:27;;;;;;;2.22;2.02;;;18.50;99.90;;;;;;924067;152;27350;-76
2023/08/27 05:58:53;;;;;;;2.58;2.30;;;18.60;99.90;;;;;;942535;149;27455;-75
2023/08/27 06:01:20;;;;;;;4.33;2.95;;;18.70;99.90;;;;;;942174;149;27351;-75
2023/08/27 06:03:47;;;;;;;2.75;2.58;;;18.80;99.90;;;;;;921576;152;27336;-75
2023/08/27 06:06:13;;;;;;;2.62;2.40;;;18.90;99.90;;;;;;934831;152;27342;-75
2023/08/27 06:08:39;;;;;;;2.65;2.45;;;19.10;99.90;;;;;;942256;151;27438;-76
2023/08/27 06:11:06;;;;;;;3.58;2.52;;;19.20;99.90;;;;;;941539;151;27482;-75
2023/08/27 06:13:33;;;;;;;2.60;2.40;;;19.30;99.90;;;;;;942183;151;27375;-75
2023/08/27 06:15:59;;;;;;;2.58;2.12;;;19.40;99.90;;;;;;939248;151;27341;-76
2023/08/27 06:18:26;;;;;;;2.90;2.22;;;19.50;99.90;;;;;;941608;149;27368;-75
2023/08/27 06:20:52;;;;;;;3.12;2.33;;;19.60;99.90;;;;;;940354;149;27365;-75
2023/08/27 06:23:19;;;;;;;2.77;2.50;;;19.70;99.90;;;;;;940394;149;27369;-75
2023/08/27 06:25:46;;;;;;;2.52;2.20;;;19.80;99.90;;;;;;941037;149;27346;-75
2023/08/27 06:28:12;;;;;;;2.45;2.22;;;20.00;99.90;;;;;;941056;149;27313;-76
2023/08/27 06:30:44;;;;;;;3.62;2.60;;;20.10;99.90;;;;;;940033;149;27352;-76
2023/08/27 06:33:11;;;;;;;3.52;2.60;;;20.30;99.90;;;;;;940651;149;27452;-75
2023/08/27 06:35:37;;;;;;;2.50;2.30;;;20.50;99.90;;;;;;940038;149;27426;-75
2023/08/27 06:38:04;;;;;;;3.60;2.50;;;20.60;99.90;;;;;;939358;149;27406;-76
2023/08/27 06:40:31;;;;;;;3.37;2.25;;;20.70;99.90;;;;;;939500;149;27377;-75
2023/08/27 06:42:58;;;;;;;2.45;2.25;;;20.80;99.90;;;;;;940060;149;27903;-77
2023/08/27 06:45:26;;;;;;;2.60;2.33;;;20.90;99.90;;;;;;938810;149;27325;-76
2023/08/27 06:47:50;;;;;;;2.60;2.40;;;21.00;99.90;;;;;;941898;149;27286;-77
2023/08/27 06:50:17;;;;;;;2.40;2.20;;;21.10;99.90;;;;;;937478;149;27369;-76
2023/08/27 06:52:44;;;;;;;3.05;2.47;;;21.10;99.90;;;;;;939360;149;27365;-76
2023/08/27 06:55:10;;;;;;;2.37;2.20;;;21.20;99.90;;;;;;938693;149;27327;-77
2023/08/27 06:57:38;;;;;;;2.67;2.02;;;21.20;99.90;;;;;;939875;149;27326;-77
2023/08/27 07:00:04;;;;;;;3.75;2.35;;;21.30;99.80;;;;;;940346;149;27422;-76
2023/08/27 07:02:30;;;;;;;2.30;2.20;;;21.20;99.70;;;;;;940890;149;27365;-77
2023/08/27 07:04:57;;;;;;;4.03;2.17;;;21.30;99.70;;;;;;939481;149;27438;-76
2023/08/27 07:07:23;;;;;;;3.65;2.17;;;21.30;99.70;;;;;;938240;149;27429;-77
2023/08/27 07:09:50;;;;;;;2.35;2.12;;;21.30;99.80;;;;;;939084;149;27511;-76
2023/08/27 07:12:18;;;;;;;2.72;2.52;;;21.30;99.80;;;;;;940032;149;27470;-77
2023/08/27 07:14:43;;;;;;;5.33;2.80;;;21.30;99.70;;;;;;939087;149;27446;-77
2023/08/27 07:17:10;;;;;;;3.37;2.30;;;21.40;99.60;;;;;;940821;149;27266;-76
2023/08/27 07:19:36;;;;;;;2.90;2.60;;;21.40;99.90;;;;;;940858;151;27369;-77
2023/08/27 07:22:03;;;;;;;2.95;2.20;;;21.40;99.40;;;;;;940500;151;27484;-76
2023/08/27 07:24:29;;;;;;;2.85;2.50;;;21.40;99.30;;;;;;941962;151;27471;-77
2023/08/27 07:26:56;;;;;;;3.00;2.60;;;21.50;99.60;;;;;;939892;151;27386;-76
2023/08/27 07:29:22;;;;;;;2.52;2.25;;;21.50;99.70;;;;;;942189;151;27337;-77
2023/08/27 07:31:49;;;;;;;3.20;2.00;;;21.60;99.60;;;;;;940316;151;27349;-77
2023/08/27 07:34:16;;;;;;;2.45;2.25;;;21.70;99.50;;;;;;941461;151;27387;-76
2023/08/27 07:36:42;;;;;;;2.87;2.27;;;21.70;99.40;;;;;;941706;151;27352;-76
2023/08/27 07:39:09;;;;;;;3.42;2.50;;;21.80;99.20;;;;;;940659;151;27310;-76
2023/08/27 07:41:35;;;;;;;3.05;2.20;;;21.90;99.20;;;;;;941738;151;27299;-77
2023/08/27 07:44:02;;;;;;;3.60;2.30;;;22.00;99.00;;;;;;941112;151;27361;-77
2023/08/27 07:46:29;;;;;;;2.95;2.65;;;22.10;99.10;;;;;;940859;151;27913;-77
2023/08/27 07:48:55;;;;;;;3.77;2.20;;;22.20;99.00;;;;;;942371;151;27390;-77
2023/08/27 07:51:22;;;;;;;5.45;2.30;;;22.30;98.60;;;;;;942410;151;27339;-77
2023/08/27 07:53:48;;;;;;;2.00;1.90;;;22.50;98.40;;;;;;941361;151;27441;-77
2023/08/27 07:56:15;;;;;;;2.02;1.85;;;22.50;98.10;;;;;;942397;151;27365;-77
2023/08/27 07:58:41;;;;;;;4.10;2.08;;;22.70;98.00;;;;;;941949;151;27357;-77
2023/08/27 08:01:08;;;;;;;3.35;2.02;;;22.80;97.50;;;;;;942248;151;27422;-77
2023/08/27 08:03:35;;;;;;;2.47;2.10;;;22.90;97.30;;;;;;940739;151;27400;-76
2023/08/27 08:06:01;;;;;;;2.30;2.10;;;23.10;97.70;;;;;;940981;151;27442;-74
2023/08/27 08:08:28;;;;;;;2.40;2.20;;;23.20;97.30;;;;;;941882;151;27462;-74
2023/08/27 08:10:55;;;;;;;2.62;2.17;;;23.50;97.90;;;;;;941570;151;27310;-74
2023/08/27 08:13:21;;;;;;;1.95;1.85;;;23.80;97.60;;;;;;941103;151;27420;-74
2023/08/27 08:15:48;;;;;;;2.52;2.33;;;24.00;97.30;;;;;;940467;151;27357;-74
2023/08/27 08:18:14;;;;;;;2.20;1.98;;;24.30;96.30;;;;;;941614;148;27355;-74
2023/08/27 08:20:41;;;;;;;2.22;2.08;;;24.60;95.20;;;;;;941331;151;27362;-74
2023/08/27 08:23:07;;;;;;;2.27;2.00;;;24.90;94.00;;;;;;941885;151;27294;-74
2023/08/27 08:25:35;;;;;;;2.60;1.98;;;25.20;93.10;;;;;;940689;151;27486;-74
2023/08/27 08:28:01;;;;;;;2.60;1.98;;;25.40;91.60;;;;;;940861;151;27462;-74
2023/08/27 08:30:27;;;;;;;2.58;2.35;;;25.60;90.40;;;;;;941957;151;27340;-74
2023/08/27 08:32:54;;;;;;;2.47;2.20;;;25.70;88.50;;;;;;938850;151;27533;-74
2023/08/27 08:35:20;;;;;;;2.55;1.92;;;25.80;86.00;;;;;;941596;151;27844;-74
2023/08/27 08:37:47;;;;;;;6.55;2.25;;;25.90;84.40;;;;;;940902;151;27364;-74
2023/08/27 08:40:14;;;;;;;2.35;2.12;;;25.90;82.90;;;;;;942892;151;27372;-74
2023/08/27 08:42:40;;;;;;;2.83;2.33;;;25.90;82.30;;;;;;942367;151;27408;-74
2023/08/27 08:45:18;;;;;;;2.60;2.40;;;25.80;81.70;;;;;;941989;151;27330;-74
2023/08/27 08:47:45;;;;;;;2.52;2.30;;;25.80;81.40;;;;;;940360;151;27368;-74
2023/08/27 08:50:12;;;;;;;2.98;2.00;;;25.70;81.40;;;;;;941515;151;27399;-74
2023/08/27 08:52:41;;;;;;;2.35;2.15;;;25.70;81.40;;;;;;941305;151;27362;-74
2023/08/27 08:55:09;;;;;;;1.98;1.82;;;25.60;81.80;;;;;;940528;151;27366;-74
2023/08/27 08:57:34;;;;;;;3.65;2.22;;;25.60;82.50;;;;;;941337;151;27399;-74
2023/08/27 09:00:00;;;;;;;2.20;1.80;;;25.70;84.20;;;;;;940000;151;27746;-74
2023/08/27 09:02:27;;;;;;;3.47;1.70;;;25.80;86.00;;;;;;940832;151;27329;-74
2023/08/27 09:04:53;;;;;;;3.27;2.80;;;26.10;88.80;;;;;;941381;151;27346;-74
2023/08/27 09:07:20;;;;;;;3.02;2.83;;;26.50;90.40;;;;;;939913;151;27431;-74
2023/08/27 09:09:47;;;;;;;5.72;2.77;;;27.00;90.40;;;;;;940986;151;27782;-74
2023/08/27 09:12:15;;;;;;;5.47;2.22;;;27.60;90.50;;;;;;939922;151;27408;-75
2023/08/27 09:14:40;;;;;;;2.25;2.05;;;28.30;90.40;;;;;;939313;151;27383;-75
2023/08/27 09:17:07;;;;;;;3.52;2.00;;;29.10;89.20;;;;;;940938;151;27375;-75
2023/08/27 09:19:33;;;;;;;2.58;2.20;;;29.90;85.20;;;;;;939453;149;27851;-75
2023/08/27 09:22:00;;;;;;;3.25;2.10;;;30.80;81.50;;;;;;938446;149;26230;-75
2023/08/27 09:24:26;;;;;;;2.62;1.98;;;31.60;78.00;;;;;;940222;149;27293;-75
2023/08/27 09:26:53;;;;;;;3.35;1.75;;;32.30;74.00;;;;;;941322;149;26366;-75
2023/08/27 09:29:19;;;;;;;2.20;1.95;;;32.90;70.20;;;;;;941340;149;27443;-75
2023/08/27 09:31:46;;;;;;;3.33;2.17;;;33.30;67.60;;;;;;939230;149;27355;-75
2023/08/27 09:34:13;;;;;;;2.70;1.75;;;33.70;66.10;;;;;;939833;149;26302;-75
2023/08/27 09:36:39;;;;;;;1.92;1.70;;;34.10;65.50;;;;;;938588;149;26281;-75
2023/08/27 09:39:11;;;;;;;2.70;1.90;;;34.50;63.90;;;;;;938920;149;26394;-75
2023/08/27 09:41:41;;;;;;;3.67;1.80;;;34.90;63.30;;;;;;940866;149;26267;-75
2023/08/27 09:44:07;;;;;;;2.95;2.10;;;35.40;62.20;;;;;;940803;149;26386;-75
2023/08/27 09:46:36;;;;;;;2.17;1.90;;;35.80;60.20;;;;;;929688;150;26384;-75
2023/08/27 09:49:04;;;;;;;2.58;1.87;;;36.20;59.10;;;;;;938143;149;26183;-75
2023/08/27 09:51:30;;;;;;;1.70;1.55;;;36.50;58.00;;;;;;937512;149;26240;-75
2023/08/27 09:53:56;;;;;;;1.95;1.40;;;36.60;57.30;;;;;;938964;149;26253;-75
2023/08/27 09:56:24;;;;;;;1.55;1.40;;;36.70;56.30;;;;;;937691;148;26307;-75
2023/08/27 09:58:50;;;;;;;1.45;1.22;;;36.70;54.70;;;;;;938921;149;26273;-75
2023/08/27 10:01:16;;;;;;;1.42;1.30;;;36.60;54.10;;;;;;937271;149;26254;-75
2023/08/27 10:03:42;;;;;;;1.85;1.20;;;36.50;53.70;;;;;;938048;149;26262;-75
2023/08/27 10:06:09;;;;;;;1.98;1.47;;;36.30;52.80;;;;;;939290;149;26273;-75
2023/08/27 10:08:36;;;;;;;2.15;1.45;;;36.10;52.30;;;;;;937771;149;27403;-75
2023/08/27 10:11:06;;;;;;;1.85;1.45;;;35.80;51.80;;;;;;937132;149;26359;-72
2023/08/27 10:13:32;;;;;;;1.92;1.50;;;35.50;51.50;;;;;;937953;149;27428;-73
2023/08/27 10:15:58;;;;;;;2.10;1.65;;;35.20;51.60;;;;;;937803;149;27480;-76
2023/08/27 10:18:25;;;;;;;2.33;1.42;;;34.70;51.70;;;;;;939279;149;26350;-72
2023/08/27 10:20:51;;;;;;;1.70;1.37;;;34.50;52.00;;;;;;930228;149;27404;-72
2023/08/27 10:23:18;;;;;;;1.40;1.30;;;34.20;52.30;;;;;;924222;151;27336;-72
2023/08/27 10:25:44;;;;;;;1.37;1.22;;;33.90;52.10;;;;;;937285;151;27468;-75
2023/08/27 10:28:11;;;;;;;1.17;1.17;;;33.60;51.90;;;;;;940075;149;27444;-71
2023/08/27 10:30:38;;;;;;;1.80;1.45;;;33.30;51.80;;;;;;925117;154;27672;-73
2023/08/27 10:33:04;;;;;;;2.22;1.42;;;32.90;51.70;;;;;;923205;151;27470;-73
2023/08/27 10:35:31;;;;;;;1.52;1.30;;;32.70;52.20;;;;;;937972;151;27362;-75
2023/08/27 10:37:57;;;;;;;2.00;1.40;;;32.40;52.20;;;;;;931351;151;27411;-73
2023/08/27 10:40:24;;;;;;;2.27;1.30;;;32.10;52.30;;;;;;939734;151;27356;-71
2023/08/27 10:42:51;;;;;;;1.77;1.62;;;31.80;52.10;;;;;;927058;154;27320;-72
2023/08/27 10:45:21;;;;;;;2.15;1.00;;;31.60;52.30;;;;;;927480;152;27358;-74
2023/08/27 10:48:06;;;;;;;2.83;1.12;;;31.40;52.60;;;;;;928926;151;27456;-71
2023/08/27 10:50:46;;;;;;;1.67;1.50;;;31.20;52.90;;;;;;942517;151;28799;-73
2023/08/27 10:53:10;;;;;;;2.10;1.40;;;31.00;53.20;;;;;;942321;149;27330;-71
2023/08/27 10:55:37;;;;;;;1.37;1.27;;;30.90;53.20;;;;;;942188;151;27321;-73
2023/08/27 10:58:21;;;;;;;2.92;1.47;;;30.80;53.50;;;;;;926320;154;26222;-74
2023/08/27 11:00:57;;;;;;;1.35;1.22;;;30.70;53.50;;;;;;926854;154;27447;-72
2023/08/27 11:03:23;;;;;;;1.35;1.25;;;30.60;53.80;;;;;;925094;151;27359;-71
2023/08/27 11:06:11;;;;;;;2.72;1.57;;;30.60;54.10;;;;;;925807;152;27428;-73
2023/08/27 11:08:40;;;;;;;1.57;1.32;;;30.60;54.20;;;;;;942236;149;27410;-74
2023/08/27 11:11:13;;;;;;;1.52;1.42;;;30.50;54.30;;;;;;940788;149;27361;-71
2023/08/27 11:13:44;;;;;;;3.77;1.40;;;30.50;54.30;;;;;;942265;149;27414;-72
2023/08/27 11:16:12;;;;;;;1.55;1.45;;;30.40;54.10;;;;;;940700;149;27442;-73
2023/08/27 11:18:45;;;;;;;1.42;1.30;;;30.40;54.10;;;;;;925133;153;27373;-73
2023/08/27 11:21:26;;;;;;;1.40;1.30;;;30.30;54.30;;;;;;931004;149;27454;-76
2023/08/27 11:24:11;;;;;;;1.50;1.40;;;30.30;54.30;;;;;;935870;149;27343;-75
2023/08/27 11:26:37;;;;;;;2.12;1.50;;;30.30;54.00;;;;;;921256;149;27410;-75
2023/08/27 11:29:04;;;;;;;1.50;1.40;;;30.20;54.20;;;;;;936925;149;27443;-76
2023/08/27 11:31:30;;;;;;;1.02;0.93;;;30.20;54.10;;;;;;938545;149;27325;-76
2023/08/27 11:33:57;;;;;;;2.00;1.47;;;30.20;54.00;;;;;;936554;149;27319;-76
2023/08/27 11:36:24;;;;;;;1.65;1.30;;;30.20;54.10;;;;;;938668;149;28378;-77
2023/08/27 11:38:50;;;;;;;1.45;1.25;;;30.20;54.10;;;;;;937138;149;27480;-75
2023/08/27 11:41:17;;;;;;;1.70;1.40;;;30.20;53.90;;;;;;937250;149;26285;-77
2023/08/27 11:43:43;;;;;;;1.47;1.37;;;30.20;53.60;;;;;;937716;149;27337;-77
2023/08/27 11:46:25;;;;;;;1.57;1.40;;;30.30;53.50;;;;;;937897;149;27331;-76
2023/08/27 11:48:52;;;;;;;2.35;1.40;;;30.30;53.40;;;;;;936145;149;27335;-76
2023/08/27 11:51:18;;;;;;;1.72;1.12;;;30.30;53.30;;;;;;937675;149;27358;-77
2023/08/27 11:53:45;;;;;;;1.60;1.37;;;30.30;53.40;;;;;;938115;149;27349;-77
2023/08/27 11:56:17;;;;;;;2.58;1.22;;;30.30;53.40;;;;;;936375;149;27348;-78
2023/08/27 11:58:44;;;;;;;1.85;1.40;;;30.30;53.20;;;;;;937282;149;27460;-76
2023/08/27 12:01:13;;;;;;;1.40;1.25;;;30.20;52.90;;;;;;938296;149;27460;-77
2023/08/27 12:03:40;;;;;;;2.70;1.50;;;30.10;52.70;;;;;;938101;149;27916;-77
2023/08/27 12:06:06;;;;;;;2.05;1.40;;;30.00;52.90;;;;;;937448;149;27411;-76
2023/08/27 12:08:35;;;;;;;1.32;1.22;;;29.90;52.60;;;;;;936341;149;27370;-75
2023/08/27 12:11:02;;;;;;;1.42;1.27;;;29.80;53.30;;;;;;936947;149;27782;-76
2023/08/27 12:13:29;;;;;;;1.95;1.65;;;29.80;53.20;;;;;;938507;149;27383;-76
2023/08/27 12:15:55;;;;;;;1.85;1.60;;;29.70;53.10;;;;;;938376;149;27376;-76
2023/08/27 12:18:22;;;;;;;1.62;1.52;;;29.60;53.10;;;;;;939829;149;27294;-76
2023/08/27 12:20:48;;;;;;;1.42;1.32;;;29.60;53.10;;;;;;936904;149;27363;-77
2023/08/27 12:23:15;;;;;;;1.37;1.27;;;29.40;53.10;;;;;;938028;149;28009;-77
2023/08/27 12:25:47;;;;;;;1.60;1.50;;;29.30;53.20;;;;;;935607;149;27370;-76
2023/08/27 12:28:14;;;;;;;3.10;1.70;;;29.20;53.60;;;;;;934477;149;27358;-76
2023/08/27 12:30:57;;;;;;;1.60;1.50;;;29.10;54.70;;;;;;937616;149;27358;-77
2023/08/27 12:33:22;;;;;;;1.98;1.45;;;28.90;54.90;;;;;;936200;149;27363;-76
2023/08/27 12:36:19;;;;;;;2.08;1.47;;;28.70;55.20;;;;;;930835;149;27362;-77
2023/08/27 12:38:46;;;;;;;2.02;1.40;;;28.40;55.40;;;;;;935712;149;27402;-77
2023/08/27 12:41:12;;;;;;;1.50;1.40;;;28.10;55.30;;;;;;937305;149;27471;-75
2023/08/27 12:43:39;;;;;;;1.35;1.25;;;27.80;55.40;;;;;;936616;149;27421;-76
2023/08/27 12:46:06;;;;;;;0.90;0.90;;;27.50;55.60;;;;;;937572;149;27359;-77
2023/08/27 12:48:32;;;;;;;0.95;0.82;;;27.10;55.50;;;;;;937490;149;27375;-77
2023/08/27 12:50:58;;;;;;;1.12;1.02;;;26.70;55.50;;;;;;937712;149;27396;-76